sensor_id;sensor_type;location;lat;lon;timestamp;P1;durP1;ratioP1;P2;durP2;ratioP2
23561;SDS011;11959;49.418;8.728;2022-08-25T00:01:17;4.28;;;2.80;;
23561;SDS011;11959;49.418;8.728;2022-08-25T00:03:45;4.95;;;3.20;;
23561;SDS011;11959;49.418;8.728;2022-08-25T00:06:11;5.57;;;3.45;;
23561;SDS011;11959;49.418;8.728;2022-08-25T00:08:37;3.63;;;2.83;;
23561;SDS011;11959;49.418;8.728;2022-08-25T00:11:09;4.03;;;3.25;;
23561;SDS011;11959;49.418;8.728;2022-08-25T00:13:41;3.17;;;2.88;;
23561;SDS011;11959;49.418;8.728;2022-08-25T00:16:09;4.07;;;3.10;;
23561;SDS011;11959;49.418;8.728;2022-08-25T00:18:37;4.15;;;3.08;;
23561;SDS011;11959;49.418;8.728;2022-08-25T00:21:04;3.10;;;2.80;;
23561;SDS011;11959;49.418;8.728;2022-08-25T00:23:30;3.80;;;3.10;;
23561;SDS011;11959;49.418;8.728;2022-08-25T00:25:56;4.10;;;2.92;;
23561;SDS011;11959;49.418;8.728;2022-08-25T00:28:22;5.25;;;3.30;;
23561;SDS011;11959;49.418;8.728;2022-08-25T00:30:48;3.67;;;3.08;;
23561;SDS011;11959;49.418;8.728;2022-08-25T00:33:15;4.18;;;3.15;;
23561;SDS011;11959;49.418;8.728;2022-08-25T00:35:41;4.53;;;3.08;;
23561;SDS011;11959;49.418;8.728;2022-08-25T00:38:08;3.72;;;2.90;;
23561;SDS011;11959;49.418;8.728;2022-08-25T00:40:34;4.03;;;3.28;;
23561;SDS011;11959;49.418;8.728;2022-08-25T00:43:01;4.53;;;3.13;;
23561;SDS011;11959;49.418;8.728;2022-08-25T00:45:28;3.45;;;3.08;;
23561;SDS011;11959;49.418;8.728;2022-08-25T00:47:55;4.13;;;3.25;;
23561;SDS011;11959;49.418;8.728;2022-08-25T00:50:21;3.70;;;3.10;;
23561;SDS011;11959;49.418;8.728;2022-08-25T00:52:48;4.78;;;3.50;;
23561;SDS011;11959;49.418;8.728;2022-08-25T00:57:55;4.30;;;3.22;;
23561;SDS011;11959;49.418;8.728;2022-08-25T01:00:34;4.45;;;3.50;;
23561;SDS011;11959;49.418;8.728;2022-08-25T01:03:05;4.15;;;3.17;;
23561;SDS011;11959;49.418;8.728;2022-08-25T01:05:31;3.47;;;3.15;;
23561;SDS011;11959;49.418;8.728;2022-08-25T01:07:57;4.90;;;3.50;;
23561;SDS011;11959;49.418;8.728;2022-08-25T01:10:28;4.57;;;3.40;;
23561;SDS011;11959;49.418;8.728;2022-08-25T01:12:57;4.65;;;3.60;;
23561;SDS011;11959;49.418;8.728;2022-08-25T01:15:27;5.72;;;4.15;;
23561;SDS011;11959;49.418;8.728;2022-08-25T01:17:54;4.53;;;3.63;;
23561;SDS011;11959;49.418;8.728;2022-08-25T01:20:23;5.35;;;3.60;;
23561;SDS011;11959;49.418;8.728;2022-08-25T01:22:50;5.85;;;3.67;;
23561;SDS011;11959;49.418;8.728;2022-08-25T01:28:06;4.22;;;3.65;;
23561;SDS011;11959;49.418;8.728;2022-08-25T01:30:33;4.53;;;3.55;;
23561;SDS011;11959;49.418;8.728;2022-08-25T01:33:01;4.30;;;3.88;;
23561;SDS011;11959;49.418;8.728;2022-08-25T01:35:32;5.13;;;3.80;;
23561;SDS011;11959;49.418;8.728;2022-08-25T01:37:58;5.13;;;4.07;;
23561;SDS011;11959;49.418;8.728;2022-08-25T01:40:25;4.55;;;3.97;;
23561;SDS011;11959;49.418;8.728;2022-08-25T01:45:37;4.20;;;3.80;;
23561;SDS011;11959;49.418;8.728;2022-08-25T01:48:05;4.35;;;3.60;;
23561;SDS011;11959;49.418;8.728;2022-08-25T01:50:31;4.47;;;3.80;;
23561;SDS011;11959;49.418;8.728;2022-08-25T01:55:27;4.85;;;4.03;;
23561;SDS011;11959;49.418;8.728;2022-08-25T01:57:54;4.35;;;3.70;;
23561;SDS011;11959;49.418;8.728;2022-08-25T02:00:20;5.38;;;4.18;;
23561;SDS011;11959;49.418;8.728;2022-08-25T02:02:47;5.00;;;3.92;;
23561;SDS011;11959;49.418;8.728;2022-08-25T02:05:13;4.97;;;3.92;;
23561;SDS011;11959;49.418;8.728;2022-08-25T02:07:40;5.88;;;4.20;;
23561;SDS011;11959;49.418;8.728;2022-08-25T02:10:08;5.57;;;4.40;;
23561;SDS011;11959;49.418;8.728;2022-08-25T02:12:36;4.65;;;3.92;;
23561;SDS011;11959;49.418;8.728;2022-08-25T02:15:05;5.13;;;4.18;;
23561;SDS011;11959;49.418;8.728;2022-08-25T02:17:33;4.57;;;3.92;;
23561;SDS011;11959;49.418;8.728;2022-08-25T02:20:01;4.95;;;3.97;;
23561;SDS011;11959;49.418;8.728;2022-08-25T02:22:28;4.82;;;3.92;;
23561;SDS011;11959;49.418;8.728;2022-08-25T02:24:54;4.97;;;4.20;;
23561;SDS011;11959;49.418;8.728;2022-08-25T02:27:19;5.68;;;4.22;;
23561;SDS011;11959;49.418;8.728;2022-08-25T02:29:45;4.63;;;4.20;;
23561;SDS011;11959;49.418;8.728;2022-08-25T02:32:11;4.90;;;4.28;;
23561;SDS011;11959;49.418;8.728;2022-08-25T02:34:36;5.93;;;4.57;;
23561;SDS011;11959;49.418;8.728;2022-08-25T02:37:05;6.15;;;4.90;;
23561;SDS011;11959;49.418;8.728;2022-08-25T02:39:30;5.97;;;4.20;;
23561;SDS011;11959;49.418;8.728;2022-08-25T02:41:56;5.10;;;4.25;;
23561;SDS011;11959;49.418;8.728;2022-08-25T02:44:23;6.30;;;4.32;;
23561;SDS011;11959;49.418;8.728;2022-08-25T02:46:49;5.47;;;4.22;;
23561;SDS011;11959;49.418;8.728;2022-08-25T02:49:14;6.47;;;4.68;;
23561;SDS011;11959;49.418;8.728;2022-08-25T02:51:40;7.25;;;4.70;;
23561;SDS011;11959;49.418;8.728;2022-08-25T02:54:06;6.25;;;4.35;;
23561;SDS011;11959;49.418;8.728;2022-08-25T02:56:33;5.60;;;4.65;;
23561;SDS011;11959;49.418;8.728;2022-08-25T02:58:59;5.55;;;4.25;;
23561;SDS011;11959;49.418;8.728;2022-08-25T03:01:26;7.13;;;4.60;;
23561;SDS011;11959;49.418;8.728;2022-08-25T03:03:53;6.70;;;5.05;;
23561;SDS011;11959;49.418;8.728;2022-08-25T03:06:19;6.63;;;4.93;;
23561;SDS011;11959;49.418;8.728;2022-08-25T03:08:47;6.43;;;4.90;;
23561;SDS011;11959;49.418;8.728;2022-08-25T03:11:13;6.80;;;5.07;;
23561;SDS011;11959;49.418;8.728;2022-08-25T03:13:39;7.90;;;5.30;;
23561;SDS011;11959;49.418;8.728;2022-08-25T03:16:06;9.27;;;5.07;;
23561;SDS011;11959;49.418;8.728;2022-08-25T03:18:33;6.50;;;5.05;;
23561;SDS011;11959;49.418;8.728;2022-08-25T03:20:58;5.72;;;4.85;;
23561;SDS011;11959;49.418;8.728;2022-08-25T03:23:24;7.07;;;4.82;;
23561;SDS011;11959;49.418;8.728;2022-08-25T03:25:52;6.65;;;5.15;;
23561;SDS011;11959;49.418;8.728;2022-08-25T03:28:37;5.90;;;4.82;;
23561;SDS011;11959;49.418;8.728;2022-08-25T03:31:03;6.30;;;4.60;;
23561;SDS011;11959;49.418;8.728;2022-08-25T03:33:29;6.38;;;5.35;;
23561;SDS011;11959;49.418;8.728;2022-08-25T03:35:55;5.72;;;5.07;;
23561;SDS011;11959;49.418;8.728;2022-08-25T03:38:22;6.53;;;5.50;;
23561;SDS011;11959;49.418;8.728;2022-08-25T03:40:49;6.57;;;4.80;;
23561;SDS011;11959;49.418;8.728;2022-08-25T03:43:15;6.90;;;5.18;;
23561;SDS011;11959;49.418;8.728;2022-08-25T03:45:42;7.65;;;4.97;;
23561;SDS011;11959;49.418;8.728;2022-08-25T03:48:09;6.20;;;5.20;;
23561;SDS011;11959;49.418;8.728;2022-08-25T03:50:35;6.07;;;5.20;;
23561;SDS011;11959;49.418;8.728;2022-08-25T03:53:07;6.47;;;5.47;;
23561;SDS011;11959;49.418;8.728;2022-08-25T03:55:33;6.28;;;5.07;;
23561;SDS011;11959;49.418;8.728;2022-08-25T03:57:58;7.18;;;5.38;;
23561;SDS011;11959;49.418;8.728;2022-08-25T04:00:24;6.30;;;5.30;;
23561;SDS011;11959;49.418;8.728;2022-08-25T04:02:49;5.78;;;4.97;;
23561;SDS011;11959;49.418;8.728;2022-08-25T04:05:15;5.45;;;4.93;;
23561;SDS011;11959;49.418;8.728;2022-08-25T04:07:41;6.93;;;5.18;;
23561;SDS011;11959;49.418;8.728;2022-08-25T04:10:07;5.82;;;4.95;;
23561;SDS011;11959;49.418;8.728;2022-08-25T04:12:34;6.95;;;5.60;;
23561;SDS011;11959;49.418;8.728;2022-08-25T04:15:01;6.82;;;5.28;;
23561;SDS011;11959;49.418;8.728;2022-08-25T04:17:29;5.70;;;4.90;;
23561;SDS011;11959;49.418;8.728;2022-08-25T04:19:54;7.07;;;6.15;;
23561;SDS011;11959;49.418;8.728;2022-08-25T04:22:21;7.25;;;5.63;;
23561;SDS011;11959;49.418;8.728;2022-08-25T04:24:47;6.32;;;5.65;;
23561;SDS011;11959;49.418;8.728;2022-08-25T04:27:13;6.70;;;4.75;;
23561;SDS011;11959;49.418;8.728;2022-08-25T04:29:39;6.15;;;5.15;;
23561;SDS011;11959;49.418;8.728;2022-08-25T04:32:05;6.60;;;5.60;;
23561;SDS011;11959;49.418;8.728;2022-08-25T04:34:31;6.75;;;5.85;;
23561;SDS011;11959;49.418;8.728;2022-08-25T04:37:00;6.55;;;5.78;;
23561;SDS011;11959;49.418;8.728;2022-08-25T04:39:27;6.43;;;5.55;;
23561;SDS011;11959;49.418;8.728;2022-08-25T04:41:53;7.47;;;5.95;;
23561;SDS011;11959;49.418;8.728;2022-08-25T04:44:19;7.22;;;5.88;;
23561;SDS011;11959;49.418;8.728;2022-08-25T04:46:45;7.13;;;5.47;;
23561;SDS011;11959;49.418;8.728;2022-08-25T04:49:11;6.60;;;5.75;;
23561;SDS011;11959;49.418;8.728;2022-08-25T04:51:37;6.65;;;5.68;;
23561;SDS011;11959;49.418;8.728;2022-08-25T04:54:06;6.93;;;5.93;;
23561;SDS011;11959;49.418;8.728;2022-08-25T04:56:34;7.18;;;5.50;;
23561;SDS011;11959;49.418;8.728;2022-08-25T04:59:01;6.82;;;5.82;;
23561;SDS011;11959;49.418;8.728;2022-08-25T05:01:31;6.97;;;5.88;;
23561;SDS011;11959;49.418;8.728;2022-08-25T05:03:58;6.45;;;5.43;;
23561;SDS011;11959;49.418;8.728;2022-08-25T05:06:28;7.47;;;6.03;;
23561;SDS011;11959;49.418;8.728;2022-08-25T05:08:54;6.32;;;5.35;;
23561;SDS011;11959;49.418;8.728;2022-08-25T05:11:21;9.45;;;5.60;;
23561;SDS011;11959;49.418;8.728;2022-08-25T05:13:48;7.07;;;5.60;;
23561;SDS011;11959;49.418;8.728;2022-08-25T05:16:15;7.45;;;6.10;;
23561;SDS011;11959;49.418;8.728;2022-08-25T05:18:42;6.43;;;5.65;;
23561;SDS011;11959;49.418;8.728;2022-08-25T05:21:13;6.72;;;5.50;;
23561;SDS011;11959;49.418;8.728;2022-08-25T05:23:41;6.80;;;5.88;;
23561;SDS011;11959;49.418;8.728;2022-08-25T05:26:11;6.55;;;5.45;;
23561;SDS011;11959;49.418;8.728;2022-08-25T05:28:39;6.15;;;5.53;;
23561;SDS011;11959;49.418;8.728;2022-08-25T05:31:05;6.70;;;5.68;;
23561;SDS011;11959;49.418;8.728;2022-08-25T05:33:34;6.35;;;5.45;;
23561;SDS011;11959;49.418;8.728;2022-08-25T05:36:01;8.77;;;6.07;;
23561;SDS011;11959;49.418;8.728;2022-08-25T05:38:28;8.00;;;5.40;;
23561;SDS011;11959;49.418;8.728;2022-08-25T05:40:58;6.88;;;5.70;;
23561;SDS011;11959;49.418;8.728;2022-08-25T05:43:26;7.18;;;6.00;;
23561;SDS011;11959;49.418;8.728;2022-08-25T05:45:53;6.47;;;5.88;;
23561;SDS011;11959;49.418;8.728;2022-08-25T05:48:20;7.28;;;6.45;;
23561;SDS011;11959;49.418;8.728;2022-08-25T05:53:18;8.52;;;6.40;;
23561;SDS011;11959;49.418;8.728;2022-08-25T05:55:44;7.43;;;6.28;;
23561;SDS011;11959;49.418;8.728;2022-08-25T05:58:09;7.55;;;6.20;;
23561;SDS011;11959;49.418;8.728;2022-08-25T06:00:36;7.20;;;6.13;;
23561;SDS011;11959;49.418;8.728;2022-08-25T06:03:02;9.05;;;6.40;;
23561;SDS011;11959;49.418;8.728;2022-08-25T06:05:28;8.98;;;6.35;;
23561;SDS011;11959;49.418;8.728;2022-08-25T06:07:54;8.55;;;6.10;;
23561;SDS011;11959;49.418;8.728;2022-08-25T06:10:20;7.72;;;6.25;;
23561;SDS011;11959;49.418;8.728;2022-08-25T06:12:47;8.07;;;6.28;;
23561;SDS011;11959;49.418;8.728;2022-08-25T06:15:13;7.93;;;6.10;;
23561;SDS011;11959;49.418;8.728;2022-08-25T06:17:42;7.30;;;6.43;;
23561;SDS011;11959;49.418;8.728;2022-08-25T06:20:09;7.95;;;5.90;;
23561;SDS011;11959;49.418;8.728;2022-08-25T06:22:40;8.57;;;7.22;;
23561;SDS011;11959;49.418;8.728;2022-08-25T06:25:07;9.05;;;6.68;;
23561;SDS011;11959;49.418;8.728;2022-08-25T06:27:34;8.50;;;6.72;;
23561;SDS011;11959;49.418;8.728;2022-08-25T06:30:00;7.25;;;6.20;;
23561;SDS011;11959;49.418;8.728;2022-08-25T06:32:32;7.55;;;5.88;;
23561;SDS011;11959;49.418;8.728;2022-08-25T06:35:00;7.93;;;6.20;;
23561;SDS011;11959;49.418;8.728;2022-08-25T06:37:27;8.45;;;6.55;;
23561;SDS011;11959;49.418;8.728;2022-08-25T06:39:52;7.32;;;6.53;;
23561;SDS011;11959;49.418;8.728;2022-08-25T06:42:18;8.13;;;6.63;;
23561;SDS011;11959;49.418;8.728;2022-08-25T06:44:43;7.70;;;6.90;;
23561;SDS011;11959;49.418;8.728;2022-08-25T06:47:09;8.88;;;6.78;;
23561;SDS011;11959;49.418;8.728;2022-08-25T06:49:35;9.02;;;7.32;;
23561;SDS011;11959;49.418;8.728;2022-08-25T06:52:01;9.80;;;7.15;;
23561;SDS011;11959;49.418;8.728;2022-08-25T06:54:27;8.80;;;6.60;;
23561;SDS011;11959;49.418;8.728;2022-08-25T06:56:52;10.00;;;6.63;;
23561;SDS011;11959;49.418;8.728;2022-08-25T06:59:18;8.65;;;6.70;;
23561;SDS011;11959;49.418;8.728;2022-08-25T07:01:44;8.80;;;6.57;;
23561;SDS011;11959;49.418;8.728;2022-08-25T07:04:10;8.95;;;6.78;;
23561;SDS011;11959;49.418;8.728;2022-08-25T07:06:35;7.65;;;6.75;;
23561;SDS011;11959;49.418;8.728;2022-08-25T07:09:03;8.55;;;6.75;;
23561;SDS011;11959;49.418;8.728;2022-08-25T07:11:30;9.23;;;7.60;;
23561;SDS011;11959;49.418;8.728;2022-08-25T07:13:58;9.27;;;6.90;;
23561;SDS011;11959;49.418;8.728;2022-08-25T07:16:26;8.88;;;6.90;;
23561;SDS011;11959;49.418;8.728;2022-08-25T07:18:51;10.98;;;6.80;;
23561;SDS011;11959;49.418;8.728;2022-08-25T07:21:20;8.07;;;6.30;;
23561;SDS011;11959;49.418;8.728;2022-08-25T07:23:47;8.73;;;6.95;;
23561;SDS011;11959;49.418;8.728;2022-08-25T07:26:16;8.55;;;6.82;;
23561;SDS011;11959;49.418;8.728;2022-08-25T07:28:48;8.25;;;7.20;;
23561;SDS011;11959;49.418;8.728;2022-08-25T07:31:14;9.65;;;7.20;;
23561;SDS011;11959;49.418;8.728;2022-08-25T07:33:40;7.65;;;6.82;;
23561;SDS011;11959;49.418;8.728;2022-08-25T07:36:26;8.45;;;6.60;;
23561;SDS011;11959;49.418;8.728;2022-08-25T07:38:52;10.65;;;7.05;;
23561;SDS011;11959;49.418;8.728;2022-08-25T07:41:17;9.82;;;6.60;;
23561;SDS011;11959;49.418;8.728;2022-08-25T07:43:43;8.55;;;6.80;;
23561;SDS011;11959;49.418;8.728;2022-08-25T07:46:09;7.60;;;6.50;;
23561;SDS011;11959;49.418;8.728;2022-08-25T07:48:35;8.77;;;6.95;;
23561;SDS011;11959;49.418;8.728;2022-08-25T07:51:06;7.88;;;7.05;;
23561;SDS011;11959;49.418;8.728;2022-08-25T07:53:33;8.25;;;6.88;;
23561;SDS011;11959;49.418;8.728;2022-08-25T07:55:58;7.65;;;6.75;;
23561;SDS011;11959;49.418;8.728;2022-08-25T07:58:24;8.65;;;7.07;;
23561;SDS011;11959;49.418;8.728;2022-08-25T08:00:49;8.55;;;7.07;;
23561;SDS011;11959;49.418;8.728;2022-08-25T08:03:17;8.65;;;6.38;;
23561;SDS011;11959;49.418;8.728;2022-08-25T08:05:44;7.93;;;7.13;;
23561;SDS011;11959;49.418;8.728;2022-08-25T08:08:11;8.00;;;6.32;;
23561;SDS011;11959;49.418;8.728;2022-08-25T08:10:39;7.07;;;6.38;;
23561;SDS011;11959;49.418;8.728;2022-08-25T08:13:06;7.85;;;6.25;;
23561;SDS011;11959;49.418;8.728;2022-08-25T08:15:33;8.65;;;6.32;;
23561;SDS011;11959;49.418;8.728;2022-08-25T08:18:01;7.82;;;6.38;;
23561;SDS011;11959;49.418;8.728;2022-08-25T08:20:27;7.32;;;6.20;;
23561;SDS011;11959;49.418;8.728;2022-08-25T08:22:55;8.57;;;6.32;;
23561;SDS011;11959;49.418;8.728;2022-08-25T08:25:21;6.88;;;6.20;;
23561;SDS011;11959;49.418;8.728;2022-08-25T08:27:47;6.85;;;5.82;;
23561;SDS011;11959;49.418;8.728;2022-08-25T08:30:13;8.23;;;6.28;;
23561;SDS011;11959;49.418;8.728;2022-08-25T08:32:38;6.88;;;6.15;;
23561;SDS011;11959;49.418;8.728;2022-08-25T08:35:04;7.97;;;6.07;;
23561;SDS011;11959;49.418;8.728;2022-08-25T08:37:31;6.47;;;5.80;;
23561;SDS011;11959;49.418;8.728;2022-08-25T08:39:56;6.97;;;5.93;;
23561;SDS011;11959;49.418;8.728;2022-08-25T08:47:36;7.18;;;6.10;;
23561;SDS011;11959;49.418;8.728;2022-08-25T08:53:10;7.65;;;5.78;;
23561;SDS011;11959;49.418;8.728;2022-08-25T08:55:48;6.93;;;5.90;;
23561;SDS011;11959;49.418;8.728;2022-08-25T09:00:53;6.03;;;5.18;;
23561;SDS011;11959;49.418;8.728;2022-08-25T09:06:11;6.22;;;5.20;;
23561;SDS011;11959;49.418;8.728;2022-08-25T09:08:41;5.97;;;5.15;;
23561;SDS011;11959;49.418;8.728;2022-08-25T09:16:27;5.53;;;4.80;;
23561;SDS011;11959;49.418;8.728;2022-08-25T09:19:35;6.10;;;5.18;;
23561;SDS011;11959;49.418;8.728;2022-08-25T09:27:49;6.80;;;4.88;;
23561;SDS011;11959;49.418;8.728;2022-08-25T09:30:21;6.38;;;4.88;;
23561;SDS011;11959;49.418;8.728;2022-08-25T09:32:51;5.32;;;4.60;;
23561;SDS011;11959;49.418;8.728;2022-08-25T09:35:26;6.45;;;4.95;;
23561;SDS011;11959;49.418;8.728;2022-08-25T09:40:27;5.22;;;4.30;;
23561;SDS011;11959;49.418;8.728;2022-08-25T09:42:57;5.40;;;4.57;;
23561;SDS011;11959;49.418;8.728;2022-08-25T09:48:00;5.85;;;5.20;;
23561;SDS011;11959;49.418;8.728;2022-08-25T09:50:29;5.57;;;4.85;;
23561;SDS011;11959;49.418;8.728;2022-08-25T09:53:06;5.40;;;4.28;;
23561;SDS011;11959;49.418;8.728;2022-08-25T09:55:37;4.97;;;4.38;;
23561;SDS011;11959;49.418;8.728;2022-08-25T09:58:20;5.07;;;4.50;;
23561;SDS011;11959;49.418;8.728;2022-08-25T10:01:02;5.88;;;4.45;;
23561;SDS011;11959;49.418;8.728;2022-08-25T10:03:37;5.05;;;4.55;;
23561;SDS011;11959;49.418;8.728;2022-08-25T10:06:22;5.00;;;4.50;;
23561;SDS011;11959;49.418;8.728;2022-08-25T10:11:31;5.40;;;4.47;;
23561;SDS011;11959;49.418;8.728;2022-08-25T10:14:06;5.18;;;4.68;;
23561;SDS011;11959;49.418;8.728;2022-08-25T10:16:43;4.88;;;4.38;;
23561;SDS011;11959;49.418;8.728;2022-08-25T10:19:27;5.50;;;4.40;;
23561;SDS011;11959;49.418;8.728;2022-08-25T10:22:03;5.40;;;4.55;;
23561;SDS011;11959;49.418;8.728;2022-08-25T10:24:34;6.78;;;4.20;;
23561;SDS011;11959;49.418;8.728;2022-08-25T10:38:19;5.82;;;4.72;;
23561;SDS011;11959;49.418;8.728;2022-08-25T10:41:04;4.90;;;4.43;;
23561;SDS011;11959;49.418;8.728;2022-08-25T10:47:00;7.45;;;4.13;;
23561;SDS011;11959;49.418;8.728;2022-08-25T10:52:49;6.82;;;4.38;;
23561;SDS011;11959;49.418;8.728;2022-08-25T10:55:33;4.78;;;3.90;;
23561;SDS011;11959;49.418;8.728;2022-08-25T10:58:16;5.53;;;4.10;;
23561;SDS011;11959;49.418;8.728;2022-08-25T11:00:51;4.05;;;3.65;;
23561;SDS011;11959;49.418;8.728;2022-08-25T11:06:11;7.07;;;4.72;;
23561;SDS011;11959;49.418;8.728;2022-08-25T11:08:44;5.43;;;4.47;;
23561;SDS011;11959;49.418;8.728;2022-08-25T11:11:28;4.25;;;3.85;;
23561;SDS011;11959;49.418;8.728;2022-08-25T11:14:06;4.53;;;4.00;;
23561;SDS011;11959;49.418;8.728;2022-08-25T11:16:39;5.05;;;4.15;;
23561;SDS011;11959;49.418;8.728;2022-08-25T11:21:44;4.80;;;3.88;;
23561;SDS011;11959;49.418;8.728;2022-08-25T11:27:12;4.57;;;4.07;;
23561;SDS011;11959;49.418;8.728;2022-08-25T11:29:46;6.35;;;4.45;;
23561;SDS011;11959;49.418;8.728;2022-08-25T11:32:20;5.15;;;3.90;;
23561;SDS011;11959;49.418;8.728;2022-08-25T11:34:48;4.70;;;4.30;;
23561;SDS011;11959;49.418;8.728;2022-08-25T11:37:20;4.63;;;4.13;;
23561;SDS011;11959;49.418;8.728;2022-08-25T11:43:00;5.82;;;4.35;;
23561;SDS011;11959;49.418;8.728;2022-08-25T11:48:17;5.30;;;4.00;;
23561;SDS011;11959;49.418;8.728;2022-08-25T11:51:04;4.85;;;4.07;;
23561;SDS011;11959;49.418;8.728;2022-08-25T11:53:33;6.25;;;4.70;;
23561;SDS011;11959;49.418;8.728;2022-08-25T11:56:02;4.80;;;4.13;;
23561;SDS011;11959;49.418;8.728;2022-08-25T11:58:48;4.88;;;3.95;;
23561;SDS011;11959;49.418;8.728;2022-08-25T12:09:33;5.65;;;4.22;;
23561;SDS011;11959;49.418;8.728;2022-08-25T12:26:06;4.97;;;4.00;;
23561;SDS011;11959;49.418;8.728;2022-08-25T12:36:54;4.45;;;3.97;;
23561;SDS011;11959;49.418;8.728;2022-08-25T12:39:29;4.40;;;3.90;;
23561;SDS011;11959;49.418;8.728;2022-08-25T12:42:01;5.13;;;3.75;;
23561;SDS011;11959;49.418;8.728;2022-08-25T12:44:46;4.57;;;4.05;;
23561;SDS011;11959;49.418;8.728;2022-08-25T12:49:44;5.13;;;3.78;;
23561;SDS011;11959;49.418;8.728;2022-08-25T12:54:54;4.45;;;3.70;;
23561;SDS011;11959;49.418;8.728;2022-08-25T13:00:04;5.22;;;3.70;;
23561;SDS011;11959;49.418;8.728;2022-08-25T13:03:13;4.95;;;3.85;;
23561;SDS011;11959;49.418;8.728;2022-08-25T13:08:48;6.05;;;3.90;;
23561;SDS011;11959;49.418;8.728;2022-08-25T13:14:36;5.28;;;4.10;;
23561;SDS011;11959;49.418;8.728;2022-08-25T13:17:04;4.00;;;3.65;;
23561;SDS011;11959;49.418;8.728;2022-08-25T13:19:30;3.70;;;3.28;;
23561;SDS011;11959;49.418;8.728;2022-08-25T13:21:56;5.35;;;3.90;;
23561;SDS011;11959;49.418;8.728;2022-08-25T13:24:29;4.07;;;3.30;;
23561;SDS011;11959;49.418;8.728;2022-08-25T13:26:59;5.53;;;3.65;;
23561;SDS011;11959;49.418;8.728;2022-08-25T13:29:29;6.20;;;4.10;;
23561;SDS011;11959;49.418;8.728;2022-08-25T13:31:58;4.10;;;3.70;;
23561;SDS011;11959;49.418;8.728;2022-08-25T13:34:27;7.07;;;4.03;;
23561;SDS011;11959;49.418;8.728;2022-08-25T13:36:56;4.22;;;3.83;;
23561;SDS011;11959;49.418;8.728;2022-08-25T13:42:55;5.63;;;3.70;;
23561;SDS011;11959;49.418;8.728;2022-08-25T13:45:25;4.50;;;4.10;;
23561;SDS011;11959;49.418;8.728;2022-08-25T13:47:53;5.78;;;3.85;;
23561;SDS011;11959;49.418;8.728;2022-08-25T13:55:24;4.63;;;3.65;;
23561;SDS011;11959;49.418;8.728;2022-08-25T13:58:21;4.65;;;3.90;;
23561;SDS011;11959;49.418;8.728;2022-08-25T14:01:05;4.40;;;3.38;;
23561;SDS011;11959;49.418;8.728;2022-08-25T14:03:36;3.90;;;3.60;;
23561;SDS011;11959;49.418;8.728;2022-08-25T14:08:38;4.32;;;3.55;;
23561;SDS011;11959;49.418;8.728;2022-08-25T14:11:10;4.80;;;3.60;;
23561;SDS011;11959;49.418;8.728;2022-08-25T14:13:40;5.30;;;3.58;;
23561;SDS011;11959;49.418;8.728;2022-08-25T14:16:18;4.32;;;3.40;;
23561;SDS011;11959;49.418;8.728;2022-08-25T14:18:49;5.22;;;3.45;;
23561;SDS011;11959;49.418;8.728;2022-08-25T14:21:21;4.60;;;3.20;;
23561;SDS011;11959;49.418;8.728;2022-08-25T14:23:49;4.53;;;3.42;;
23561;SDS011;11959;49.418;8.728;2022-08-25T14:26:17;3.65;;;2.92;;
23561;SDS011;11959;49.418;8.728;2022-08-25T14:28:43;6.60;;;3.80;;
23561;SDS011;11959;49.418;8.728;2022-08-25T14:31:11;4.25;;;3.33;;
23561;SDS011;11959;49.418;8.728;2022-08-25T14:33:42;5.28;;;3.63;;
23561;SDS011;11959;49.418;8.728;2022-08-25T14:36:16;4.57;;;3.47;;
23561;SDS011;11959;49.418;8.728;2022-08-25T14:38:42;3.60;;;3.17;;
23561;SDS011;11959;49.418;8.728;2022-08-25T14:41:08;4.28;;;3.30;;
23561;SDS011;11959;49.418;8.728;2022-08-25T14:43:33;4.55;;;3.03;;
23561;SDS011;11959;49.418;8.728;2022-08-25T14:45:59;4.38;;;3.47;;
23561;SDS011;11959;49.418;8.728;2022-08-25T14:48:32;3.63;;;3.10;;
23561;SDS011;11959;49.418;8.728;2022-08-25T14:51:03;4.65;;;3.15;;
23561;SDS011;11959;49.418;8.728;2022-08-25T14:53:29;5.07;;;3.40;;
23561;SDS011;11959;49.418;8.728;2022-08-25T14:55:56;3.83;;;3.42;;
23561;SDS011;11959;49.418;8.728;2022-08-25T14:58:21;3.53;;;3.00;;
23561;SDS011;11959;49.418;8.728;2022-08-25T15:00:48;4.15;;;3.30;;
23561;SDS011;11959;49.418;8.728;2022-08-25T15:03:16;5.82;;;2.67;;
23561;SDS011;11959;49.418;8.728;2022-08-25T15:05:48;4.13;;;2.90;;
23561;SDS011;11959;49.418;8.728;2022-08-25T15:08:14;3.55;;;3.03;;
23561;SDS011;11959;49.418;8.728;2022-08-25T15:10:58;4.40;;;3.10;;
23561;SDS011;11959;49.418;8.728;2022-08-25T15:13:23;5.65;;;3.58;;
23561;SDS011;11959;49.418;8.728;2022-08-25T15:15:51;3.50;;;3.20;;
23561;SDS011;11959;49.418;8.728;2022-08-25T15:18:17;4.18;;;2.88;;
23561;SDS011;11959;49.418;8.728;2022-08-25T15:20:42;4.78;;;3.03;;
23561;SDS011;11959;49.418;8.728;2022-08-25T15:23:08;3.70;;;2.90;;
23561;SDS011;11959;49.418;8.728;2022-08-25T15:25:34;3.67;;;3.00;;
23561;SDS011;11959;49.418;8.728;2022-08-25T15:28:04;4.25;;;3.30;;
23561;SDS011;11959;49.418;8.728;2022-08-25T15:30:30;3.65;;;3.03;;
23561;SDS011;11959;49.418;8.728;2022-08-25T15:32:56;3.47;;;2.95;;
23561;SDS011;11959;49.418;8.728;2022-08-25T15:35:22;3.78;;;2.80;;
23561;SDS011;11959;49.418;8.728;2022-08-25T15:37:47;4.68;;;3.20;;
23561;SDS011;11959;49.418;8.728;2022-08-25T15:40:13;3.75;;;2.88;;
23561;SDS011;11959;49.418;8.728;2022-08-25T15:42:39;4.30;;;2.55;;
23561;SDS011;11959;49.418;8.728;2022-08-25T15:45:05;4.65;;;3.10;;
23561;SDS011;11959;49.418;8.728;2022-08-25T15:47:31;4.53;;;3.13;;
23561;SDS011;11959;49.418;8.728;2022-08-25T15:50:02;3.90;;;2.88;;
23561;SDS011;11959;49.418;8.728;2022-08-25T15:52:30;5.45;;;2.90;;
23561;SDS011;11959;49.418;8.728;2022-08-25T15:54:56;5.57;;;2.90;;
23561;SDS011;11959;49.418;8.728;2022-08-25T15:57:22;4.80;;;3.08;;
23561;SDS011;11959;49.418;8.728;2022-08-25T15:59:49;3.50;;;2.70;;
23561;SDS011;11959;49.418;8.728;2022-08-25T16:02:16;5.38;;;2.92;;
23561;SDS011;11959;49.418;8.728;2022-08-25T16:04:42;3.92;;;2.83;;
23561;SDS011;11959;49.418;8.728;2022-08-25T16:07:08;4.45;;;3.20;;
23561;SDS011;11959;49.418;8.728;2022-08-25T16:09:34;4.85;;;2.70;;
23561;SDS011;11959;49.418;8.728;2022-08-25T16:12:00;4.18;;;3.08;;
23561;SDS011;11959;49.418;8.728;2022-08-25T16:14:26;3.97;;;2.90;;
23561;SDS011;11959;49.418;8.728;2022-08-25T16:16:52;3.97;;;2.83;;
23561;SDS011;11959;49.418;8.728;2022-08-25T16:19:17;2.90;;;2.47;;
23561;SDS011;11959;49.418;8.728;2022-08-25T16:21:43;4.22;;;3.00;;
23561;SDS011;11959;49.418;8.728;2022-08-25T16:24:09;3.38;;;2.88;;
23561;SDS011;11959;49.418;8.728;2022-08-25T16:26:35;3.40;;;2.75;;
23561;SDS011;11959;49.418;8.728;2022-08-25T16:29:06;5.25;;;2.95;;
23561;SDS011;11959;49.418;8.728;2022-08-25T16:31:36;4.80;;;2.78;;
23561;SDS011;11959;49.418;8.728;2022-08-25T16:34:02;4.10;;;2.55;;
23561;SDS011;11959;49.418;8.728;2022-08-25T16:36:28;4.35;;;3.25;;
23561;SDS011;11959;49.418;8.728;2022-08-25T16:38:54;3.80;;;2.72;;
23561;SDS011;11959;49.418;8.728;2022-08-25T16:41:23;3.45;;;2.92;;
23561;SDS011;11959;49.418;8.728;2022-08-25T16:43:50;3.28;;;2.30;;
23561;SDS011;11959;49.418;8.728;2022-08-25T16:46:16;3.80;;;2.60;;
23561;SDS011;11959;49.418;8.728;2022-08-25T16:48:44;9.00;;;3.60;;
23561;SDS011;11959;49.418;8.728;2022-08-25T16:51:15;5.43;;;3.17;;
23561;SDS011;11959;49.418;8.728;2022-08-25T16:53:42;3.77;;;2.67;;
23561;SDS011;11959;49.418;8.728;2022-08-25T16:56:27;4.22;;;2.88;;
23561;SDS011;11959;49.418;8.728;2022-08-25T16:58:54;4.72;;;2.70;;
23561;SDS011;11959;49.418;8.728;2022-08-25T17:01:21;3.92;;;2.88;;
23561;SDS011;11959;49.418;8.728;2022-08-25T17:03:48;3.30;;;3.00;;
23561;SDS011;11959;49.418;8.728;2022-08-25T17:06:16;4.55;;;3.40;;
23561;SDS011;11959;49.418;8.728;2022-08-25T17:08:42;5.10;;;3.10;;
23561;SDS011;11959;49.418;8.728;2022-08-25T17:11:09;3.30;;;3.00;;